Time;durP1;ratioP1;P1;durP2;ratioP2;P2;SDS_P1;SDS_P2;PMS_P1;PMS_P2;Temp;Humidity;BMP_temperature;BMP_pressure;BME280_temperature;BME280_humidity;BME280_pressure;Samples;Min_cycle;Max_cycle;Signal;HPM_P1;HPM_P2
2022/10/04 00:00:35;;;;;;;15.27;5.63;;;10.40;99.90;;;;;;4946939;29;20040;-80
2022/10/04 00:03:08;;;;;;;9.80;5.57;;;10.40;99.90;;;;;;4941113;29;20112;-81
2022/10/04 00:05:36;;;;;;;9.98;6.10;;;10.40;99.90;;;;;;4946805;29;20193;-83
2022/10/04 00:08:30;;;;;;;7.13;4.95;;;10.40;99.90;;;;;;4947200;29;20142;-82
2022/10/04 00:11:07;;;;;;;10.73;4.18;;;10.40;99.90;;;;;;4941078;29;20581;-81
2022/10/04 00:13:36;;;;;;;6.32;3.75;;;10.40;99.90;;;;;;4947258;29;20111;-82
2022/10/04 00:16:03;;;;;;;9.60;4.70;;;10.30;99.90;;;;;;4931440;29;20066;-82
2022/10/04 00:18:38;;;;;;;8.52;4.65;;;10.30;99.90;;;;;;4932747;29;20052;-82
2022/10/04 00:21:06;;;;;;;8.98;4.55;;;10.30;99.90;;;;;;4938676;29;20135;-80
2022/10/04 00:23:36;;;;;;;11.93;4.55;;;10.30;99.90;;;;;;4946175;29;20051;-81
2022/10/04 00:26:23;;;;;;;5.32;4.15;;;10.30;99.90;;;;;;4936791;29;20136;-81
2022/10/04 00:28:50;;;;;;;7.53;3.80;;;10.30;99.90;;;;;;4942698;29;20059;-81
2022/10/04 00:31:25;;;;;;;7.55;3.40;;;10.30;99.90;;;;;;4941646;29;20052;-82
2022/10/04 00:34:13;;;;;;;10.00;5.35;;;10.30;99.90;;;;;;4938592;29;20048;-82
2022/10/04 00:36:54;;;;;;;8.07;5.22;;;10.30;99.90;;;;;;4947558;29;20051;-81
2022/10/04 00:39:33;;;;;;;6.43;4.03;;;10.20;99.90;;;;;;4943091;29;20054;-81
2022/10/04 00:42:17;;;;;;;8.68;4.45;;;10.20;99.90;;;;;;4943755;29;20144;-81
2022/10/04 00:44:52;;;;;;;6.05;4.43;;;10.20;99.90;;;;;;4938686;29;20058;-81
2022/10/04 00:47:30;;;;;;;7.80;4.00;;;10.20;99.90;;;;;;4946165;29;20056;-80
2022/10/04 00:50:19;;;;;;;6.95;3.85;;;10.20;99.90;;;;;;4947860;29;20107;-80
2022/10/04 00:52:56;;;;;;;7.40;4.00;;;10.20;99.90;;;;;;4936880;29;20051;-80
2022/10/04 00:55:38;;;;;;;7.30;4.03;;;10.10;99.90;;;;;;4936785;29;20107;-82
2022/10/04 00:58:15;;;;;;;4.90;4.10;;;10.10;99.90;;;;;;4932278;29;20051;-81
2022/10/04 01:00:43;;;;;;;6.05;4.07;;;10.10;99.90;;;;;;4944254;29;20132;-82
2022/10/04 01:03:18;;;;;;;7.50;3.97;;;10.10;99.90;;;;;;4942030;29;20565;-82
2022/10/04 01:05:52;;;;;;;9.13;4.05;;;10.10;99.90;;;;;;4941027;29;20112;-81
2022/10/04 01:08:27;;;;;;;5.60;4.45;;;10.10;99.90;;;;;;4946366;29;20512;-82
2022/10/04 01:11:05;;;;;;;8.35;3.83;;;10.10;99.90;;;;;;4929709;29;20062;-82
2022/10/04 01:14:07;;;;;;;5.22;3.90;;;10.00;99.90;;;;;;4933498;29;20589;-81
2022/10/04 01:16:35;;;;;;;7.43;3.80;;;10.00;99.90;;;;;;4913830;29;20060;-82
2022/10/04 01:19:21;;;;;;;6.50;4.30;;;10.00;99.90;;;;;;4944119;29;20479;-82
2022/10/04 01:22:01;;;;;;;8.40;3.78;;;10.00;99.90;;;;;;4945190;29;20377;-81
2022/10/04 01:24:36;;;;;;;4.28;3.30;;;9.90;99.90;;;;;;4936067;29;20413;-81
2022/10/04 01:27:05;;;;;;;6.55;4.00;;;9.90;99.90;;;;;;4936853;29;20044;-82
2022/10/04 01:29:32;;;;;;;7.82;3.50;;;9.90;99.90;;;;;;4933028;29;20048;-81
2022/10/04 01:32:00;;;;;;;8.85;3.75;;;9.90;99.90;;;;;;4942770;29;20067;-81
2022/10/04 01:34:29;;;;;;;6.03;3.53;;;9.90;99.90;;;;;;4938884;29;20062;-78
2022/10/04 01:36:58;;;;;;;8.10;3.53;;;9.90;99.90;;;;;;4929636;29;20477;-79
2022/10/04 01:39:26;;;;;;;3.90;3.10;;;9.90;99.90;;;;;;4937833;29;20047;-81
2022/10/04 01:42:09;;;;;;;7.55;3.17;;;9.90;99.90;;;;;;4946983;29;20051;-82
2022/10/04 01:45:06;;;;;;;5.85;3.38;;;9.80;99.90;;;;;;4941433;29;20054;-81
2022/10/04 01:47:54;;;;;;;7.63;3.17;;;9.80;99.90;;;;;;4928977;29;20076;-81
2022/10/04 01:50:28;;;;;;;5.35;3.67;;;9.80;99.90;;;;;;4936228;29;20058;-80
2022/10/04 01:53:20;;;;;;;4.72;3.40;;;9.80;99.90;;;;;;4937307;29;20111;-82
2022/10/04 01:55:54;;;;;;;4.30;3.75;;;9.80;99.90;;;;;;4936043;29;20079;-81
2022/10/04 01:58:29;;;;;;;11.27;3.55;;;9.80;99.90;;;;;;4940386;29;20048;-81
2022/10/04 02:01:06;;;;;;;4.18;2.90;;;9.80;99.90;;;;;;4936206;29;20051;-79
2022/10/04 02:03:40;;;;;;;6.13;3.45;;;9.80;99.90;;;;;;4946603;29;20050;-81
2022/10/04 02:06:09;;;;;;;5.05;3.70;;;9.80;99.90;;;;;;4946088;29;20066;-81
2022/10/04 02:08:46;;;;;;;8.60;3.65;;;9.80;99.90;;;;;;4934865;29;20052;-81
2022/10/04 02:11:19;;;;;;;7.90;3.60;;;9.80;99.90;;;;;;4942335;29;20139;-81
2022/10/04 02:13:51;;;;;;;7.03;3.45;;;9.80;99.90;;;;;;4943841;29;20464;-82
2022/10/04 02:16:20;;;;;;;7.78;3.67;;;9.80;99.90;;;;;;4945285;29;20058;-81
2022/10/04 02:18:49;;;;;;;4.90;3.45;;;9.80;99.90;;;;;;4937526;29;20083;-82
2022/10/04 02:21:17;;;;;;;3.85;3.42;;;9.70;99.90;;;;;;4933368;29;20111;-80
2022/10/04 02:23:46;;;;;;;8.55;3.67;;;9.80;99.90;;;;;;4946613;29;20071;-81
2022/10/04 02:26:12;;;;;;;4.68;3.95;;;9.70;99.90;;;;;;4942083;29;20062;-78
2022/10/04 02:28:39;;;;;;;5.65;3.20;;;9.80;99.90;;;;;;4945335;29;20066;-82
2022/10/04 02:33:57;;;;;;;5.10;3.78;;;9.70;99.90;;;;;;4946104;29;20063;-81
2022/10/04 02:36:28;;;;;;;5.00;3.50;;;9.70;99.90;;;;;;4943094;29;20413;-78
2022/10/04 02:39:07;;;;;;;8.73;3.28;;;9.70;99.90;;;;;;4939043;29;20573;-82
2022/10/04 02:41:42;;;;;;;4.57;3.38;;;9.70;99.90;;;;;;4942649;29;20598;-82
2022/10/04 02:44:51;;;;;;;8.80;3.95;;;9.70;99.90;;;;;;4934501;29;20056;-81
2022/10/04 02:47:30;;;;;;;4.55;3.55;;;9.70;99.90;;;;;;4942425;29;20048;-80
2022/10/04 02:50:08;;;;;;;9.38;3.25;;;9.70;99.90;;;;;;4940623;29;20107;-82
2022/10/04 02:52:45;;;;;;;7.93;3.67;;;9.60;99.90;;;;;;4945097;29;20387;-82
2022/10/04 02:55:30;;;;;;;4.82;3.75;;;9.60;99.90;;;;;;4946817;29;20063;-81
2022/10/04 02:57:58;;;;;;;9.95;4.30;;;9.60;99.90;;;;;;4941595;29;20413;-80
2022/10/04 03:00:29;;;;;;;9.68;3.53;;;9.60;99.90;;;;;;4937929;29;20550;-81
2022/10/04 03:03:21;;;;;;;9.85;3.53;;;9.60;99.90;;;;;;4942621;29;20062;-81
2022/10/04 03:06:00;;;;;;;4.07;3.65;;;9.60;99.90;;;;;;4944843;29;20146;-81
2022/10/04 03:08:30;;;;;;;8.38;3.50;;;9.50;99.90;;;;;;4940697;29;20074;-81
2022/10/04 03:10:58;;;;;;;7.35;4.10;;;9.50;99.90;;;;;;4936834;29;20131;-81
2022/10/04 03:13:26;;;;;;;6.72;3.85;;;9.60;99.90;;;;;;4943022;29;20107;-82
2022/10/04 03:15:53;;;;;;;7.75;4.43;;;9.60;99.90;;;;;;4935224;29;20048;-82
2022/10/04 03:18:21;;;;;;;4.68;3.70;;;9.60;99.90;;;;;;4945471;29;20063;-81
2022/10/04 03:20:48;;;;;;;5.13;3.72;;;9.60;99.90;;;;;;4940023;29;20048;-81
2022/10/04 03:23:17;;;;;;;5.57;3.70;;;9.50;99.90;;;;;;4941769;29;20578;-81
2022/10/04 03:25:58;;;;;;;6.40;3.47;;;9.50;99.90;;;;;;4931936;29;20054;-81
2022/10/04 03:28:27;;;;;;;8.60;4.18;;;9.50;99.90;;;;;;4943086;29;20055;-82
2022/10/04 03:30:54;;;;;;;8.15;3.88;;;9.50;99.90;;;;;;4945177;29;20053;-82
2022/10/04 03:33:24;;;;;;;6.75;4.05;;;9.50;99.90;;;;;;4934845;29;20052;-82
2022/10/04 03:35:53;;;;;;;5.78;3.83;;;9.50;99.90;;;;;;4931079;29;20502;-81
2022/10/04 03:38:22;;;;;;;4.85;3.60;;;9.50;99.90;;;;;;4944588;29;20066;-82
2022/10/04 03:41:00;;;;;;;5.13;3.63;;;9.50;99.90;;;;;;4936863;29;20054;-82
2022/10/04 03:43:33;;;;;;;5.63;4.10;;;9.50;99.90;;;;;;4941952;29;20076;-81
2022/10/04 03:46:00;;;;;;;8.23;4.57;;;9.50;99.90;;;;;;4946779;29;20055;-82
2022/10/04 03:48:35;;;;;;;7.28;4.93;;;9.50;99.90;;;;;;4949504;29;20447;-81
2022/10/04 03:51:05;;;;;;;8.15;4.18;;;9.50;99.90;;;;;;4941832;29;20167;-80
2022/10/04 03:53:34;;;;;;;6.40;4.38;;;9.40;99.90;;;;;;4941706;29;20339;-81
2022/10/04 03:56:07;;;;;;;6.57;4.03;;;9.50;99.90;;;;;;4947762;29;20048;-81
2022/10/04 03:58:35;;;;;;;11.15;4.47;;;9.40;99.90;;;;;;4952778;29;20443;-80
2022/10/04 04:01:20;;;;;;;5.82;4.10;;;9.40;99.90;;;;;;4948634;29;20051;-79
2022/10/04 04:04:00;;;;;;;6.53;5.03;;;9.50;99.90;;;;;;4944832;29;20052;-82
2022/10/04 04:06:39;;;;;;;4.35;3.50;;;9.50;99.90;;;;;;4936056;29;20052;-82
2022/10/04 04:09:07;;;;;;;8.25;3.80;;;9.40;99.90;;;;;;4943011;29;20111;-82
2022/10/04 04:11:35;;;;;;;5.30;3.75;;;9.40;99.90;;;;;;4944346;29;20070;-82
2022/10/04 04:14:11;;;;;;;5.30;3.22;;;9.40;99.90;;;;;;4939698;29;20066;-81
2022/10/04 04:16:38;;;;;;;4.40;3.25;;;9.40;99.90;;;;;;4947418;29;20051;-82
2022/10/04 04:19:14;;;;;;;5.43;3.72;;;9.40;99.90;;;;;;4951575;29;20099;-81
2022/10/04 04:21:41;;;;;;;4.75;3.35;;;9.40;99.90;;;;;;4955899;29;20036;-82
2022/10/04 04:24:30;;;;;;;8.32;5.35;;;9.40;99.90;;;;;;4949071;29;20048;-79
2022/10/04 04:27:04;;;;;;;7.63;5.80;;;9.40;99.90;;;;;;4950363;29;20050;-80
2022/10/04 04:29:59;;;;;;;9.35;5.95;;;9.40;99.90;;;;;;4936363;29;20667;-81
2022/10/04 04:32:39;;;;;;;8.30;5.82;;;9.30;99.90;;;;;;4935018;29;20064;-80
2022/10/04 04:35:19;;;;;;;11.60;5.40;;;9.30;99.90;;;;;;4938874;29;20421;-80
2022/10/04 04:38:02;;;;;;;7.18;5.40;;;9.30;99.90;;;;;;4944784;29;20364;-81
2022/10/04 04:40:29;;;;;;;8.50;5.65;;;9.30;99.90;;;;;;4946869;29;20128;-81
2022/10/04 04:42:58;;;;;;;7.90;5.43;;;9.30;99.90;;;;;;4944407;29;20083;-82
2022/10/04 04:45:29;;;;;;;9.10;5.80;;;9.30;99.90;;;;;;4936733;29;20111;-82
2022/10/04 04:47:58;;;;;;;8.75;6.03;;;9.20;99.90;;;;;;4931013;29;20088;-80
2022/10/04 04:50:29;;;;;;;10.23;5.78;;;9.30;99.90;;;;;;4934641;29;20080;-81
2022/10/04 04:53:19;;;;;;;5.88;3.88;;;9.20;99.90;;;;;;4940140;29;20131;-81
2022/10/04 04:56:06;;;;;;;6.80;4.07;;;9.30;99.90;;;;;;4943023;29;20048;-81
2022/10/04 04:58:44;;;;;;;6.88;4.85;;;9.30;99.90;;;;;;4949790;29;20099;-80
2022/10/04 05:01:27;;;;;;;6.05;4.82;;;9.20;99.90;;;;;;4951920;29;20107;-80
2022/10/04 05:04:20;;;;;;;9.65;5.55;;;9.20;99.90;;;;;;4946543;29;20090;-80
2022/10/04 05:07:02;;;;;;;7.95;6.05;;;9.20;99.90;;;;;;4937976;29;20112;-82
2022/10/04 05:09:34;;;;;;;14.13;6.40;;;9.20;99.90;;;;;;4933312;29;20055;-81
2022/10/04 05:12:07;;;;;;;7.75;5.90;;;9.20;99.90;;;;;;4942509;29;20055;-82
2022/10/04 05:14:38;;;;;;;16.88;6.70;;;9.20;99.90;;;;;;4944560;29;20049;-81
2022/10/04 05:17:05;;;;;;;8.35;5.38;;;9.20;99.90;;;;;;4945102;29;20059;-81
2022/10/04 05:19:38;;;;;;;7.78;4.78;;;9.10;99.90;;;;;;4932987;29;20131;-81
2022/10/04 05:22:11;;;;;;;12.40;8.20;;;9.10;99.90;;;;;;4935671;29;20052;-82
2022/10/04 05:24:41;;;;;;;8.75;5.65;;;9.10;99.90;;;;;;4934098;29;20513;-82
2022/10/04 05:27:16;;;;;;;10.10;5.25;;;9.10;99.90;;;;;;4938016;29;20512;-81
2022/10/04 05:30:04;;;;;;;6.53;5.35;;;9.10;99.90;;;;;;4933201;29;20587;-81
2022/10/04 05:33:06;;;;;;;8.30;5.25;;;9.10;99.90;;;;;;4941802;29;20094;-82
2022/10/04 05:35:51;;;;;;;10.00;6.57;;;9.10;99.90;;;;;;4941274;29;20047;-82
2022/10/04 05:38:44;;;;;;;11.30;6.95;;;9.10;99.90;;;;;;4939594;29;20082;-82
2022/10/04 05:41:28;;;;;;;14.85;9.57;;;9.00;99.90;;;;;;4939995;29;20052;-80
2022/10/04 05:44:01;;;;;;;15.40;11.05;;;9.00;99.90;;;;;;4944641;29;20107;-81
2022/10/04 05:46:34;;;;;;;15.27;10.32;;;9.00;99.90;;;;;;4944588;29;20147;-80
2022/10/04 05:49:12;;;;;;;17.60;9.68;;;9.00;99.90;;;;;;4935696;29;20138;-81
2022/10/04 05:52:00;;;;;;;12.07;8.25;;;9.00;99.90;;;;;;4940002;29;20391;-82
2022/10/04 05:54:34;;;;;;;15.25;8.60;;;8.90;99.90;;;;;;4944147;29;20055;-81
2022/10/04 05:57:31;;;;;;;12.55;7.88;;;9.00;99.90;;;;;;4939891;29;20051;-82
2022/10/04 06:00:45;;;;;;;13.30;8.32;;;8.90;99.90;;;;;;4942125;29;20417;-81
2022/10/04 06:03:37;;;;;;;11.50;7.45;;;9.00;99.90;;;;;;4939923;29;20111;-81
2022/10/04 06:06:29;;;;;;;8.27;6.70;;;9.00;99.90;;;;;;4932217;29;20074;-80
2022/10/04 06:08:58;;;;;;;11.35;6.57;;;9.00;99.90;;;;;;4917615;29;20094;-81
2022/10/04 06:11:40;;;;;;;10.93;7.47;;;9.00;99.90;;;;;;4940943;29;20094;-81
2022/10/04 06:14:32;;;;;;;9.63;6.95;;;9.10;99.90;;;;;;4942349;29;20054;-81
2022/10/04 06:17:26;;;;;;;9.52;6.75;;;9.10;99.90;;;;;;4940991;29;20135;-81
2022/10/04 06:19:57;;;;;;;23.33;13.02;;;9.10;99.90;;;;;;4935260;29;20051;-81
2022/10/04 06:22:25;;;;;;;16.63;10.18;;;9.20;99.90;;;;;;4931952;29;20047;-82
2022/10/04 06:25:05;;;;;;;47.00;10.43;;;9.20;99.90;;;;;;4944185;29;20092;-81
2022/10/04 06:28:03;;;;;;;13.13;8.35;;;9.30;99.90;;;;;;4941571;29;20442;-81
2022/10/04 06:30:52;;;;;;;12.77;6.88;;;9.30;99.90;;;;;;4935275;29;20110;-79
2022/10/04 06:33:41;;;;;;;12.00;7.60;;;9.40;99.90;;;;;;4929231;29;20056;-80
2022/10/04 06:36:42;;;;;;;17.77;7.80;;;9.50;99.90;;;;;;4941641;29;20051;-80
2022/10/04 06:39:33;;;;;;;13.68;6.00;;;9.50;99.90;;;;;;4931591;29;20048;-81
2022/10/04 06:42:18;;;;;;;9.65;6.68;;;9.60;99.90;;;;;;4938624;29;20074;-81
2022/10/04 06:45:05;;;;;;;10.68;6.72;;;9.60;99.90;;;;;;4944725;29;20525;-81
2022/10/04 06:47:43;;;;;;;8.65;6.25;;;9.60;99.90;;;;;;4939319;29;20074;-81
2022/10/04 06:50:21;;;;;;;10.25;6.55;;;9.70;99.90;;;;;;4936002;29;20510;-82
2022/10/04 06:53:07;;;;;;;10.75;6.80;;;9.70;99.90;;;;;;4932342;29;20095;-82
2022/10/04 06:55:45;;;;;;;9.07;5.78;;;9.70;99.90;;;;;;4933619;29;20699;-80
2022/10/04 06:58:54;;;;;;;12.52;6.38;;;9.70;99.90;;;;;;4939775;29;20135;-81
2022/10/04 07:01:30;;;;;;;9.17;5.40;;;9.70;99.90;;;;;;4935854;29;20075;-80
2022/10/04 07:04:00;;;;;;;6.00;5.18;;;9.80;99.90;;;;;;4934382;29;20163;-80
2022/10/04 07:06:33;;;;;;;10.93;5.30;;;9.80;99.90;;;;;;4931224;29;20067;-81
2022/10/04 07:09:04;;;;;;;8.52;5.50;;;9.90;99.90;;;;;;4941334;29;20058;-81
2022/10/04 07:11:45;;;;;;;10.13;5.85;;;9.90;99.90;;;;;;4936142;29;20074;-81
2022/10/04 07:14:20;;;;;;;8.57;5.57;;;9.90;99.90;;;;;;4941939;29;20055;-82
2022/10/04 07:16:49;;;;;;;13.10;6.57;;;10.00;99.90;;;;;;4937229;29;20076;-82
2022/10/04 07:19:19;;;;;;;8.43;5.43;;;10.00;99.90;;;;;;4937942;29;20131;-81
2022/10/04 07:22:07;;;;;;;7.87;6.07;;;10.10;99.90;;;;;;4934808;29;20535;-81
2022/10/04 07:24:52;;;;;;;9.93;5.63;;;10.10;99.90;;;;;;4933007;29;20051;-81
2022/10/04 07:27:35;;;;;;;9.40;5.88;;;10.20;99.90;;;;;;4935801;29;20086;-81
2022/10/04 07:30:08;;;;;;;8.05;6.32;;;10.20;99.90;;;;;;4939556;29;20055;-81
2022/10/04 07:32:43;;;;;;;6.88;6.03;;;10.20;99.90;;;;;;4937347;29;20097;-82
2022/10/04 07:35:11;;;;;;;7.82;5.30;;;10.30;99.90;;;;;;4932387;29;20055;-82
2022/10/04 07:37:56;;;;;;;8.55;5.63;;;10.40;99.90;;;;;;4936755;29;20112;-81
2022/10/04 07:40:36;;;;;;;9.35;6.95;;;10.40;99.90;;;;;;4934682;29;20079;-82
2022/10/04 07:43:10;;;;;;;11.00;7.00;;;10.50;99.90;;;;;;4940535;29;20078;-81
2022/10/04 07:45:39;;;;;;;9.98;6.88;;;10.60;99.90;;;;;;4935093;29;20120;-81
2022/10/04 07:48:09;;;;;;;9.75;6.18;;;10.60;99.90;;;;;;4935146;29;20052;-82
2022/10/04 07:51:14;;;;;;;13.13;7.60;;;10.70;99.90;;;;;;4943576;29;20063;-81
2022/10/04 07:53:51;;;;;;;13.80;7.78;;;10.70;99.90;;;;;;4938169;29;20286;-80
2022/10/04 07:56:27;;;;;;;14.00;8.35;;;10.80;99.90;;;;;;4931990;29;20063;-81
2022/10/04 07:59:12;;;;;;;13.70;9.30;;;10.90;99.90;;;;;;4934846;29;20044;-83
2022/10/04 08:01:47;;;;;;;18.52;11.90;;;10.90;99.90;;;;;;4932411;29;20273;-81
2022/10/04 08:04:37;;;;;;;18.75;11.50;;;11.00;99.90;;;;;;4942732;29;20056;-82
2022/10/04 08:07:30;;;;;;;16.67;10.57;;;11.00;99.90;;;;;;4957916;28;20406;-81
2022/10/04 08:10:13;;;;;;;16.48;10.75;;;11.00;99.90;;;;;;4931974;29;20058;-81
2022/10/04 08:13:05;;;;;;;18.02;11.23;;;10.90;99.90;;;;;;4935441;29;20112;-82
2022/10/04 08:15:39;;;;;;;14.98;9.35;;;11.00;99.90;;;;;;4939796;29;20119;-81
2022/10/04 08:18:08;;;;;;;16.30;10.40;;;11.00;99.90;;;;;;4942587;29;20056;-81
2022/10/04 08:20:54;;;;;;;16.70;10.43;;;11.00;99.90;;;;;;4945074;29;20131;-81
2022/10/04 08:23:40;;;;;;;15.68;9.68;;;11.10;99.90;;;;;;4935242;29;20116;-82
2022/10/04 08:26:37;;;;;;;14.43;9.75;;;11.20;99.90;;;;;;4938014;29;20083;-82
2022/10/04 08:29:43;;;;;;;16.63;10.10;;;11.20;99.90;;;;;;4930921;29;20488;-82
2022/10/04 08:32:47;;;;;;;13.27;9.25;;;11.30;99.90;;;;;;4935410;29;20056;-82
2022/10/04 08:35:35;;;;;;;14.07;9.65;;;11.40;99.90;;;;;;4938498;29;20501;-80
2022/10/04 08:38:05;;;;;;;12.02;9.73;;;11.50;99.90;;;;;;4942019;29;20074;-82
2022/10/04 08:41:07;;;;;;;15.52;10.43;;;11.50;99.90;;;;;;4935372;29;20051;-82
2022/10/04 08:44:04;;;;;;;16.80;10.85;;;11.60;99.90;;;;;;4933459;29;20051;-80
2022/10/04 08:46:43;;;;;;;15.88;10.23;;;11.70;99.90;;;;;;4936199;29;20063;-81
2022/10/04 08:49:22;;;;;;;14.70;9.98;;;11.70;99.90;;;;;;4945162;29;20074;-83
2022/10/04 08:52:20;;;;;;;20.38;10.18;;;11.80;99.90;;;;;;4946365;29;20079;-82
2022/10/04 08:55:23;;;;;;;15.73;11.18;;;11.80;99.90;;;;;;4950799;28;20414;-81
2022/10/04 08:58:12;;;;;;;16.27;10.65;;;11.90;99.90;;;;;;4935611;29;20050;-82
2022/10/04 09:01:10;;;;;;;13.90;10.85;;;11.90;99.90;;;;;;4936881;29;20091;-81
2022/10/04 09:04:00;;;;;;;16.52;10.80;;;11.90;99.90;;;;;;4932261;29;20441;-82
2022/10/04 09:06:39;;;;;;;18.63;12.13;;;11.90;99.90;;;;;;4937514;29;20067;-83
2022/10/04 09:09:27;;;;;;;21.33;13.73;;;12.00;99.90;;;;;;4932894;29;20056;-82
2022/10/04 09:12:11;;;;;;;19.52;13.50;;;12.00;99.90;;;;;;4930903;29;20063;-82
2022/10/04 09:15:06;;;;;;;21.67;15.63;;;12.10;99.90;;;;;;4931374;29;20067;-82
2022/10/04 09:17:58;;;;;;;22.50;14.05;;;12.10;99.90;;;;;;4940064;29;20074;-81
2022/10/04 09:20:41;;;;;;;21.90;14.95;;;12.10;99.90;;;;;;4939706;29;20103;-80
2022/10/04 09:23:57;;;;;;;29.42;14.57;;;12.10;99.90;;;;;;4932915;29;20127;-81
2022/10/04 09:26:39;;;;;;;19.23;13.10;;;12.20;99.90;;;;;;4943488;29;20058;-78
2022/10/04 09:29:48;;;;;;;18.00;13.25;;;12.20;99.90;;;;;;4934658;29;20063;-81
2022/10/04 09:32:30;;;;;;;23.95;14.43;;;12.20;99.90;;;;;;4932283;29;20087;-82
2022/10/04 09:35:28;;;;;;;26.15;14.35;;;12.20;99.90;;;;;;4939137;29;20049;-81
2022/10/04 09:38:19;;;;;;;19.20;12.63;;;12.30;99.90;;;;;;4938431;29;20107;-81
2022/10/04 09:40:53;;;;;;;20.35;13.10;;;12.30;99.90;;;;;;4936507;29;20048;-81
2022/10/04 09:43:34;;;;;;;21.80;14.30;;;12.30;99.90;;;;;;4936198;29;20059;-81
2022/10/04 09:46:19;;;;;;;;;;;12.30;99.90;;;;;;4935841;29;20051;-81
2022/10/04 09:49:35;;;;;;;21.55;14.27;;;12.40;99.90;;;;;;4940804;29;20405;-80
2022/10/04 09:52:45;;;;;;;24.95;14.07;;;12.40;99.90;;;;;;4940079;29;20066;-79
2022/10/04 09:55:23;;;;;;;;;;;12.40;99.90;;;;;;4934425;29;20071;-81
2022/10/04 09:58:21;;;;;;;24.02;13.68;;;12.40;99.90;;;;;;4941282;29;19927;-80
2022/10/04 10:01:07;;;;;;;25.60;14.55;;;12.40;99.90;;;;;;4935930;29;20111;-81
2022/10/04 10:04:03;;;;;;;19.30;13.65;;;12.40;99.90;;;;;;4940285;29;20047;-81
2022/10/04 10:06:33;;;;;;;20.27;13.95;;;12.30;99.90;;;;;;4956336;23;20159;-81
2022/10/04 10:09:06;;;;;;;22.80;13.80;;;12.40;99.90;;;;;;4949318;28;20354;-80
2022/10/04 10:15:31;;;;;;;24.48;13.80;;;12.30;99.90;;;;;;4939664;28;20054;-76
2022/10/04 10:18:27;;;;;;;20.35;13.45;;;12.40;99.90;;;;;;4949045;28;20134;-81
2022/10/04 10:21:02;;;;;;;18.52;12.80;;;12.40;99.90;;;;;;4949980;28;20054;-79
2022/10/04 10:23:46;;;;;;;23.90;13.90;;;12.50;99.90;;;;;;4943328;28;20058;-80
2022/10/04 10:26:28;;;;;;;17.58;13.40;;;12.50;99.90;;;;;;4944140;28;20541;-78
2022/10/04 10:29:25;;;;;;;22.45;13.40;;;12.50;99.90;;;;;;4948412;28;20043;-80
2022/10/04 10:32:22;;;;;;;19.40;13.20;;;12.60;99.90;;;;;;4946185;28;20047;-80
2022/10/04 10:35:13;;;;;;;19.40;12.95;;;12.60;99.90;;;;;;4947445;28;20048;-82
2022/10/04 10:38:02;;;;;;;18.38;12.63;;;12.60;99.90;;;;;;4943139;28;20471;-77
2022/10/04 10:40:51;;;;;;;22.48;12.55;;;12.70;99.90;;;;;;4950330;29;20059;-77
2022/10/04 10:43:26;;;;;;;18.17;12.95;;;12.70;99.90;;;;;;4943728;28;20043;-80
2022/10/04 10:46:45;;;;;;;15.98;11.45;;;12.80;99.90;;;;;;4947494;28;20497;-80
2022/10/04 10:49:54;;;;;;;20.52;10.95;;;12.80;99.90;;;;;;4907591;29;20052;-80
2022/10/04 10:52:42;;;;;;;16.80;11.40;;;12.90;99.90;;;;;;4896146;29;20450;-80
2022/10/04 10:55:29;;;;;;;14.82;10.82;;;13.00;99.90;;;;;;4937097;28;20494;-80
2022/10/04 10:58:15;;;;;;;17.50;11.23;;;13.10;99.90;;;;;;4944452;28;20055;-80
2022/10/04 11:01:08;;;;;;;20.02;12.05;;;13.10;99.90;;;;;;4948419;28;20055;-80
2022/10/04 11:03:57;;;;;;;16.27;10.82;;;13.20;99.90;;;;;;4945476;28;20054;-79
2022/10/04 11:06:56;;;;;;;14.85;9.90;;;13.30;99.90;;;;;;4940085;28;20048;-78
2022/10/04 11:10:02;;;;;;;14.30;10.90;;;13.40;99.90;;;;;;4928095;28;20058;-79
2022/10/04 11:13:06;;;;;;;13.20;9.63;;;13.50;99.90;;;;;;4942286;28;20044;-80
2022/10/04 11:15:33;;;;;;;13.57;9.45;;;13.50;99.90;;;;;;4944174;28;20129;-78
2022/10/04 11:18:44;;;;;;;14.98;10.27;;;13.60;99.90;;;;;;4942040;28;20792;-80
2022/10/04 11:21:37;;;;;;;13.90;10.27;;;13.60;99.90;;;;;;4944883;28;20599;-80
2022/10/04 11:24:12;;;;;;;15.35;9.50;;;13.70;99.90;;;;;;4949393;28;20043;-81
2022/10/04 11:26:48;;;;;;;14.10;9.95;;;13.80;99.90;;;;;;4953468;28;20047;-78
2022/10/04 11:29:29;;;;;;;13.00;9.27;;;13.80;99.90;;;;;;4945870;28;20051;-81
2022/10/04 11:31:59;;;;;;;13.25;9.07;;;13.90;99.90;;;;;;4942613;28;20154;-81
2022/10/04 11:34:58;;;;;;;14.55;8.82;;;14.00;99.90;;;;;;4944518;28;20052;-79
2022/10/04 11:37:54;;;;;;;12.05;8.60;;;14.00;99.90;;;;;;4939978;28;20044;-81
2022/10/04 11:40:27;;;;;;;18.48;8.95;;;14.10;99.90;;;;;;4950567;29;20057;-79
2022/10/04 11:43:12;;;;;;;9.82;7.20;;;14.10;99.90;;;;;;4949546;29;20056;-81
2022/10/04 11:46:00;;;;;;;10.18;5.90;;;14.10;99.90;;;;;;4951437;29;20089;-80
2022/10/04 11:48:52;;;;;;;14.05;6.70;;;14.20;99.90;;;;;;4944376;29;20115;-80
2022/10/04 11:51:26;;;;;;;9.77;6.60;;;14.20;99.90;;;;;;4953033;29;20058;-79
2022/10/04 11:54:26;;;;;;;11.55;7.30;;;14.20;99.90;;;;;;4946551;29;20074;-79
2022/10/04 11:57:13;;;;;;;8.43;6.07;;;14.30;99.90;;;;;;4938178;29;20062;-81
2022/10/04 11:59:58;;;;;;;9.27;5.53;;;14.40;99.90;;;;;;4940593;28;20058;-82
2022/10/04 12:03:00;;;;;;;9.07;4.53;;;14.50;99.90;;;;;;4952740;28;20134;-81
2022/10/04 12:05:57;;;;;;;8.07;5.28;;;14.60;99.90;;;;;;4954155;28;20051;-81
2022/10/04 12:08:47;;;;;;;7.32;4.40;;;14.60;99.90;;;;;;4947912;28;20115;-80
2022/10/04 12:14:56;;;;;;;6.38;4.03;;;14.70;99.90;;;;;;4948824;28;20138;-81
2022/10/04 12:18:02;;;;;;;9.63;4.88;;;14.70;99.90;;;;;;4942988;28;20052;-81
2022/10/04 12:20:48;;;;;;;8.85;5.05;;;14.70;99.90;;;;;;4950661;28;20067;-80
2022/10/04 12:23:36;;;;;;;7.47;5.10;;;14.80;99.90;;;;;;4953149;28;20043;-81
2022/10/04 12:26:34;;;;;;;6.95;3.92;;;14.80;99.90;;;;;;4940859;28;20044;-79
2022/10/04 12:29:20;;;;;;;5.90;4.00;;;14.80;99.90;;;;;;4941845;28;20074;-81
2022/10/04 12:31:58;;;;;;;8.35;4.47;;;14.80;99.90;;;;;;4945915;28;20134;-80
2022/10/04 12:34:29;;;;;;;7.60;5.00;;;14.90;99.90;;;;;;4955047;28;20039;-79
2022/10/04 12:37:12;;;;;;;6.03;4.22;;;14.90;99.90;;;;;;4952040;29;20290;-80
2022/10/04 12:40:06;;;;;;;7.38;5.30;;;14.90;99.90;;;;;;4959636;29;20051;-81
2022/10/04 12:42:52;;;;;;;7.18;4.95;;;14.90;99.90;;;;;;4959596;28;20048;-80
2022/10/04 12:45:41;;;;;;;7.38;4.88;;;15.00;99.90;;;;;;4950315;29;20132;-81
2022/10/04 12:48:55;;;;;;;8.23;4.35;;;15.10;99.90;;;;;;4949838;29;20051;-81
2022/10/04 12:51:50;;;;;;;8.50;4.78;;;15.20;99.90;;;;;;4914711;29;20052;-81
2022/10/04 12:54:20;;;;;;;13.63;6.57;;;15.30;99.90;;;;;;4941868;29;20474;-81
2022/10/04 12:57:27;;;;;;;13.68;6.05;;;15.20;99.90;;;;;;4950308;29;20093;-82
2022/10/04 13:00:22;;;;;;;8.70;5.38;;;15.20;99.90;;;;;;4948860;29;20056;-79
2022/10/04 13:02:58;;;;;;;8.82;5.35;;;15.30;99.90;;;;;;4950238;29;20086;-81
2022/10/04 13:05:48;;;;;;;7.35;5.00;;;15.30;99.90;;;;;;4957066;29;20051;-81
2022/10/04 13:08:42;;;;;;;14.77;5.95;;;15.30;99.90;;;;;;4945069;29;20054;-80
2022/10/04 13:11:28;;;;;;;10.43;4.53;;;15.30;99.90;;;;;;4950551;29;20051;-82
2022/10/04 13:14:27;;;;;;;7.47;4.78;;;15.40;99.90;;;;;;4958261;29;20134;-81
2022/10/04 13:17:17;;;;;;;5.63;4.30;;;15.40;99.90;;;;;;4949104;28;20048;-82
2022/10/04 13:20:17;;;;;;;9.40;4.53;;;15.40;99.90;;;;;;4957481;28;20162;-81
2022/10/04 13:22:58;;;;;;;7.97;4.70;;;15.50;99.90;;;;;;4945214;29;20415;-82
2022/10/04 13:26:07;;;;;;;8.85;5.53;;;15.50;99.90;;;;;;4941864;29;20055;-82
2022/10/04 13:28:51;;;;;;;12.43;5.20;;;15.50;99.90;;;;;;4947093;29;20130;-80
2022/10/04 13:31:54;;;;;;;9.25;4.60;;;15.50;99.90;;;;;;4956501;29;20306;-81
2022/10/04 13:34:49;;;;;;;8.50;5.40;;;15.50;99.90;;;;;;4949839;29;20504;-81
2022/10/04 13:37:45;;;;;;;8.20;4.57;;;15.60;99.90;;;;;;4955323;28;20063;-80
2022/10/04 13:40:35;;;;;;;6.47;4.07;;;15.60;99.90;;;;;;4951366;29;20048;-80
2022/10/04 13:43:11;;;;;;;10.32;4.50;;;15.60;99.90;;;;;;4945168;29;20082;-81
2022/10/04 13:45:57;;;;;;;8.15;4.72;;;15.60;99.90;;;;;;4955544;29;20086;-80
2022/10/04 13:48:43;;;;;;;7.25;4.60;;;15.80;99.90;;;;;;4955187;29;20081;-82
2022/10/04 13:51:27;;;;;;;7.15;4.35;;;15.80;99.90;;;;;;4954665;29;20071;-80
2022/10/04 13:57:28;;;;;;;11.07;4.20;;;15.80;99.90;;;;;;4952755;29;20083;-82
2022/10/04 14:00:05;;;;;;;7.15;5.10;;;15.80;99.90;;;;;;4950033;29;20496;-81
2022/10/04 14:02:54;;;;;;;7.32;4.38;;;15.90;99.90;;;;;;4949563;29;20066;-82
2022/10/04 14:05:54;;;;;;;7.75;4.07;;;15.90;99.90;;;;;;4949886;29;20055;-82
2022/10/04 14:08:41;;;;;;;7.38;3.97;;;16.00;99.90;;;;;;4946905;29;20146;-82
2022/10/04 14:11:26;;;;;;;5.13;4.28;;;15.90;99.90;;;;;;4948320;29;20063;-81
2022/10/04 14:14:12;;;;;;;7.22;4.20;;;16.00;99.90;;;;;;4946661;29;20051;-81
2022/10/04 14:17:09;;;;;;;10.75;4.30;;;16.00;99.90;;;;;;4952170;29;20054;-81